Latest Coastal Weather Observations for Wyndham Airport

IDD60701

Issued at 6:01 pm CST Friday 18 September 2020 (issued every 10 minutes, with the page automatically refreshed every 10 minutes)

About coastal observations | Map of coastal stations | Coastal observations for NT | Marine services | Other Formats
Station Details ID: 001006 Name: WYNDHAM AERO Lat: -15.51 Lon: 128.15 Height: 3.8 m
Data from the previous 72 hours. | See also: Recent months at Wyndham Airport
Date/Time
CST
Wind Sea
Height
m
Swell Vis
km
Cloud Weather Temp
°C
Press
hPa
Rain since
9am
mm
Dir  Spd
kts
Gust
kts
Height
m
Period
s
Dir
18/06:00pm N 19 28 - - - - - - - 32.4 1008.3 0.0
18/05:30pm NNE 19 24 - - - - - - - 33.3 1008.2 0.0
18/05:00pm N 17 23 - - - - - - - 34.8 1008.3 0.0
18/04:30pm N 15 20 - - - - - - - 36.7 1008.1 0.0
18/04:25pm N 14 20 - - - - - - - 36.8 1008.1 0.0
18/04:00pm N 5 10 - - - - - - - 38.1 1008.4 0.0
18/03:30pm W 4 8 - - - - - - - 38.3 1008.7 0.0
18/03:00pm W 6 11 - - - - - - - 37.5 1009.0 0.0
18/02:30pm WNW 10 15 - - - - - - - 37.8 1009.4 0.0
18/02:00pm NW 7 12 - - - - - - - 36.9 1010.0 0.0
18/01:30pm WNW 9 14 - - - - - - - 36.7 1010.5 0.0
18/01:00pm WNW 6 10 - - - - - - - 36.4 1011.2 0.0
18/12:30pm W 7 13 - - - - - - - 36.1 1011.8 0.0
18/12:00pm W 8 12 - - - - - - - 35.1 1012.4 0.0
18/11:30am WNW 7 10 - - - - - - - 33.9 1012.8 0.0
18/11:00am NW 8 11 - - - - - - - 33.5 1013.2 0.0
18/10:30am WNW 8 12 - - - - - - - 32.5 1013.4 -
18/10:00am NW 6 9 - - - - - - - 31.8 1013.5 -
18/09:30am WNW 6 10 - - - - - - - 31.3 1013.4 -
18/09:00am NW 7 9 - - - - - - - 30.0 1013.2 -
18/08:30am W 5 7 - - - - - - - 29.0 1012.9 -
18/08:00am WSW 4 5 - - - - - - - 27.6 1012.7 -
18/07:30am WNW 5 7 - - - - - - - 26.4 1012.3 -
18/07:00am NW 3 5 - - - - - - - 25.6 1012.0 -
18/06:30am NW 7 9 - - - - - - - 25.3 1011.6 -
18/06:00am NW 6 7 - - - - - - - 25.4 1011.5 -
18/05:30am NW 7 9 - - - - - - - 25.8 1011.2 -
18/05:00am NW 6 8 - - - - - - - 25.4 1011.0 -
18/04:30am WNW 6 8 - - - - - - - 25.5 1011.0 0.0
18/04:00am WNW 6 7 - - - - - - - 25.3 1011.1 -
18/03:30am W 7 7 - - - - - - - 25.5 1011.2 -
18/03:00am WNW 6 7 - - - - - - - 26.2 1011.3 -
18/02:30am NW 8 9 - - - - - - - 27.0 1011.3 -
18/02:00am NW 8 9 - - - - - - - 27.1 1011.5 -
18/01:30am NW 7 8 - - - - - - - 26.8 1011.8 -
18/01:00am NW 5 7 - - - - - - - 26.7 1012.1 -
18/12:30am NNW 6 7 - - - - - - - 27.2 1012.3 -
18/12:00am NNW 6 7 - - - - - - - 27.5 1012.3 -
 
Date/Time
CST
Wind Sea
Height
m
Swell Vis
km
Cloud Weather Temp
°C
Press
hPa
Rain since
9am
mm
Dir  Spd
kts
Gust
kts
Height
m
Period
s
Dir
17/11:30pm NNW 8 10 - - - - - - - 28.1 1012.2 -
17/11:00pm NNW 9 13 - - - - - - - 28.5 1012.3 -
17/10:30pm NNW 7 11 - - - - - - - 28.3 1012.3 0.0
17/10:00pm N 10 14 - - - - - - - 28.5 1012.0 -
17/09:30pm NNW 10 14 - - - - - - - 28.4 1011.7 -
17/09:00pm N 13 18 - - - - - - - 28.7 1011.1 -
17/08:30pm N 15 22 - - - - - - - 28.8 1010.6 -
17/08:00pm N 18 24 - - - - - - - 29.1 1010.1 -
17/07:30pm N 19 27 - - - - - - - 29.5 1009.6 -
17/07:00pm N 19 25 - - - - - - - 30.1 1009.3 -
17/06:30pm N 18 24 - - - - - - - 30.9 1009.0 -
17/06:00pm NNE 18 24 - - - - - - - 32.3 1008.6 -
17/05:30pm NNE 17 23 - - - - - - - 33.2 1008.4 -
17/05:00pm NNE 16 22 - - - - - - - 34.2 1008.2 -
17/04:30pm N 14 19 - - - - - - - 35.4 1008.4 -
17/04:00pm N 12 18 - - - - - - - 36.1 1008.5 -
17/03:30pm N 12 18 - - - - - - - 35.9 1008.9 -
17/03:00pm N 11 17 - - - - - - - 36.6 1009.2 -
17/02:30pm NNE 8 16 - - - - - - - 36.8 1009.7 -
17/02:00pm N 9 14 - - - - - - - 36.3 1010.2 -
17/01:30pm NNW 9 14 - - - - - - - 36.1 1010.9 -
17/01:00pm N 7 14 - - - - - - - 36.4 1011.4 -
17/12:30pm NW 10 15 - - - - - - - 35.1 1012.1 -
17/12:00pm WNW 5 8 - - - - - - - 34.5 1012.8 -
17/11:30am WNW 7 11 - - - - - - - 32.9 1013.4 0.0
17/11:00am WNW 7 11 - - - - - - - 32.4 1013.6 0.0
17/10:30am WNW 7 9 - - - - - - - 31.9 1013.9 0.0
17/10:00am W 7 11 - - - - - - - 30.9 1013.9 0.0
17/09:30am W 7 9 - - - - - - - 30.2 1013.9 0.0
17/09:00am W 7 9 - - - - - - - 29.6 1013.6 0.0
17/08:30am W 7 9 - - - - - - - 28.8 1013.3 0.0
17/08:00am NW 7 9 - - - - - - - 28.1 1013.2 0.0
17/07:30am NNW 6 7 - - - - - - - 26.4 1012.6 0.0
17/07:00am WNW 5 5 - - - - - - - 25.1 1012.1 0.0
17/06:30am WNW 7 8 - - - - - - - 25.3 1011.6 0.0
17/06:00am WNW 7 7 - - - - - - - 25.7 1011.2 0.0
17/05:30am NW 7 8 - - - - - - - 25.6 1010.9 0.0
17/05:00am NW 8 8 - - - - - - - 26.3 1010.7 0.0
17/04:30am WNW 8 9 - - - - - - - 26.6 1010.7 0.0
17/04:00am WNW 8 9 - - - - - - - 26.9 1010.9 0.0
17/03:30am NW 6 7 - - - - - - - 26.3 1011.1 0.0
17/03:00am W 8 10 - - - - - - - 26.9 1011.2 0.0
17/02:30am WNW 5 8 - - - - - - - 26.2 1011.4 0.0
17/02:00am WNW 5 5 - - - - - - - 25.8 1011.9 0.0
17/01:30am WNW 6 7 - - - - - - - 26.9 1012.0 0.0
17/01:00am WNW 5 6 - - - - - - - 25.7 1012.2 0.0
17/12:30am WNW 5 6 - - - - - - - 26.4 1012.5 0.0
17/12:00am WNW 7 8 - - - - - - - 27.4 1012.7 0.0
 
Date/Time
CST
Wind Sea
Height
m
Swell Vis
km
Cloud Weather Temp
°C
Press
hPa
Rain since
9am
mm
Dir  Spd
kts
Gust
kts
Height
m
Period
s
Dir
16/11:30pm NW 5 7 - - - - - - - 27.8 1012.8 0.0
16/11:00pm NW 7 9 - - - - - - - 28.2 1012.6 0.0
16/10:30pm NNW 8 11 - - - - - - - 28.5 1012.6 0.0
16/10:00pm NNW 7 11 - - - - - - - 28.8 1012.5 0.0
16/09:30pm NNW 7 9 - - - - - - - 28.9 1012.4 0.0
16/09:00pm N 9 13 - - - - - - - 29.0 1012.1 0.0
16/08:30pm N 12 18 - - - - - - - 29.1 1011.6 0.0
16/08:00pm N 14 19 - - - - - - - 29.5 1011.2 0.0
16/07:30pm NNE 12 17 - - - - - - - 29.9 1010.8 0.0
16/07:00pm N 15 19 - - - - - - - 30.8 1010.2 0.0
16/06:30pm NNE 14 19 - - - - - - - 31.9 1009.7 0.0
16/06:00pm NNE 15 19 - - - - - - - 32.7 1009.5 0.0
16/05:30pm N 15 18 - - - - - - - 33.9 1009.2 0.0
16/05:00pm NNE 14 19 - - - - - - - 34.7 1009.3 0.0
16/04:30pm NNE 12 18 - - - - - - - 35.1 1009.1 0.0
16/04:00pm N 13 22 - - - - - - - 36.3 1009.2 0.0
16/03:30pm NNE 12 18 - - - - - - - 36.3 1009.3 0.0
16/03:00pm NNE 10 16 - - - - - - - 36.6 1009.8 0.0
16/02:30pm NNE 12 18 - - - - - - - 35.9 1010.3 0.0
16/02:00pm NE 11 15 - - - - - - - 36.4 1010.8 0.0
16/01:30pm NNE 9 16 - - - - - - - 35.4 1011.5 0.0
16/01:00pm E 8 16 - - - - - - - 35.6 1012.0 0.0
16/12:30pm E 7 15 - - - - - - - 34.9 1012.7 0.0
16/12:00pm NNW 9 13 - - - - - - - 34.8 1013.1 0.0
16/11:30am ENE 7 11 - - - - - - - 33.6 1013.4 0.0
16/11:00am N 7 11 - - - - - - - 33.4 1013.6 0.0
16/10:30am ESE 4 8 - - - - - - - 32.5 1013.8 0.0
16/10:00am W 3 6 - - - - - - - 31.4 1014.1 0.0
16/09:30am SW 3 4 - - - - - - - 30.1 1014.2 0.0
16/09:00am ESE 6 8 - - - - - - - 29.5 1014.1 0.0
16/08:30am ESE 7 8 - - - - - - - 27.9 1013.8 0.0
16/08:00am SE 8 9 - - - - - - - 26.0 1013.4 0.0
16/07:30am NE 4 5 - - - - - - - 24.0 1013.0 0.0
16/07:00am NE 3 6 - - - - - - - 21.9 1012.5 0.0
16/06:30am NNE 3 3 - - - - - - - 22.5 1012.2 0.0
16/06:00am NNE 1 3 - - - - - - - 23.9 1011.7 0.0
16/05:30am NNE 1 5 - - - - - - - 24.1 1011.6 0.0
16/05:00am CALM 0 0 - - - - - - - 26.7 1011.4 0.0
16/04:30am SSW 1 5 - - - - - - - 26.2 1010.9 0.0
16/04:00am SSW 3 4 - - - - - - - 25.5 1010.7 0.0
16/03:30am SSW 1 4 - - - - - - - 25.3 1010.9 0.0
16/03:00am CALM 0 0 - - - - - - - 24.5 1011.0 0.0
16/02:30am CALM 0 0 - - - - - - - 24.9 1011.2 0.0
16/02:00am SSW 4 4 - - - - - - - 24.5 1011.5 0.0
16/01:30am CALM 0 0 - - - - - - - 23.8 1011.8 0.0
16/01:00am CALM 0 2 - - - - - - - 26.3 1012.0 0.0
16/12:30am SSW 4 5 - - - - - - - 25.4 1012.4 0.0
16/12:00am SSW 4 4 - - - - - - - 25.5 1012.5 0.0
 
Date/Time
CST
Wind Sea
Height
m
Swell Vis
km
Cloud Weather Temp
°C
Press
hPa
Rain since
9am
mm
Dir  Spd
kts
Gust
kts
Height
m
Period
s
Dir
15/11:30pm SSW 3 6 - - - - - - - 26.5 1012.7 0.0
15/11:00pm SSW 9 10 - - - - - - - 26.7 1012.8 0.0
15/10:30pm SW 8 10 - - - - - - - 27.0 1012.7 0.0
15/10:00pm WNW 2 4 - - - - - - - 27.8 1012.6 0.0
15/09:30pm N 3 4 - - - - - - - 28.6 1012.4 0.0
15/09:00pm N 6 8 - - - - - - - 29.8 1012.2 0.0
15/08:30pm N 5 7 - - - - - - - 29.5 1011.8 0.0
15/08:00pm N 8 10 - - - - - - - 31.0 1011.4 0.0

Other formats

Comma delimited format used in spreadsheet applications
http://www.bom.gov.au/fwo/IDD60701/IDD60701.95214.axf

JavaScript Object Notation format (JSON) in row-major order
http://www.bom.gov.au/fwo/IDD60701/IDD60701.95214.json

Data quality

Most of these data are generated automatically and are frequently updated. Quality checks on data are not normally performed. It is possible for incorrect values to appear. Refer to information at About Latest Weather Observations and please check the disclaimer before using these data.